This is the latest recevied weather packets stored in our database for station/object N3WAX-1. If no packets are shown the sender has not sent any weather packets the latest 10 day(s).
| Time | Temp. | Humidity | Pressure | Rain* | Wind** | Luminosity | Snow |
|---|---|---|---|---|---|---|---|
| 1777871312 | 5.56° C | 72% | 1015.2 hPa | 0 mm | - | 0 W/m² | - |
| 1777870413 | 6.11° C | 70% | 1015.2 hPa | 0 mm | - | 0 W/m² | - |
| 1777867416 | 6.11° C | 70% | 1014.8 hPa | 0 mm | - | 0 W/m² | - |
| 1777866188 | 6.11° C | 69% | 1014.7 hPa | 0 mm | - | 0 W/m² | - |
| 1777864649 | 6.11° C | 68% | 1014.6 hPa | 0 mm | - | 0 W/m² | - |
| 1777864343 | 6.67° C | 67% | 1014.5 hPa | 0 mm | - | 0 W/m² | - |
| 1777862804 | 6.67° C | 67% | 1014.3 hPa | 0 mm | - | 0 W/m² | - |
| 1777862499 | 6.67° C | 67% | 1014.3 hPa | 0 mm | - | 0 W/m² | - |
| 1777860039 | 7.78° C | 64% | 1014.4 hPa | 0 mm | - | 0 W/m² | - |
| 1777859559 | 8.33° C | 63% | 1014.5 hPa | 0 mm | - | 0 W/m² | - |
| 1777858811 | 8.33° C | 61% | 1014.3 hPa | 0 mm | - | 0 W/m² | - |
| 1777856967 | 9.44° C | 55% | 1014 hPa | 0 mm | - | 0 W/m² | - |
| 1777852969 | 12.22° C | 46% | 1013.3 hPa | 0 mm | - | 0 W/m² | - |
| 1777848092 | 14.44° C | 40% | 1013 hPa | 0 mm | - | 141 W/m² | - |
| 1777846591 | 15° C | 40% | 1012.9 hPa | 0 mm | - | 239 W/m² | - |
| 1777845091 | 15° C | 38% | 1013 hPa | 0 mm | - | 341 W/m² | - |
| 1777842090 | 15° C | 40% | 1013 hPa | 0 mm | - | 506 W/m² | - |
| 1777841191 | 14.44° C | 39% | 1012.9 hPa | 0 mm | - | 577 W/m² | - |
| 1777837887 | 13.89° C | 43% | 1013.5 hPa | 0 mm | - | 823 W/m² | - |
| 1777837582 | 13.89° C | 40% | 1013.5 hPa | 0 mm | - | 858 W/m² | - |
| 1777836044 | 13.89° C | 43% | 1013.7 hPa | 0 mm | - | 991 W/m² | - |
| 1777832438 | 12.78° C | 45% | 1014.1 hPa | 0 mm | - | 206 W/m² | - |
| 1777831228 | 13.33° C | 46% | 1014.3 hPa | 0 mm | - | 1090 W/m² | - |
| 1777829729 | 11.67° C | 47% | 1014.3 hPa | 0 mm | - | 1021 W/m² | - |
| 1777829712 | 12.22° C | 45% | 1014.4 hPa | 0 mm | - | 1013 W/m² | - |
* Rain latest hour (hover to see other rain measurements)
** Current wind speed in m/s (hover to see current wind gust speed)